Time;durP1;ratioP1;P1;durP2;ratioP2;P2;SDS_P1;SDS_P2;PMS_P1;PMS_P2;Temp;Humidity;BMP_temperature;BMP_pressure;BME280_temperature;BME280_humidity;BME280_pressure;Samples;Min_cycle;Max_cycle;Signal;HPM_P1;HPM_P2
2021/06/14 00:00:15;;;;;;;8.73;4.50;;;;;;;;;;4435121;32;20214;-76
2021/06/14 00:02:41;;;;;;;9.98;4.62;;;;;;;;;;4436034;32;20636;-77
2021/06/14 00:05:09;;;;;;;7.03;4.30;;;;;;;;;;4433991;32;20149;-77
2021/06/14 00:07:34;;;;;;;6.80;4.72;;;;;;;;;;4433982;32;20963;-77
2021/06/14 00:09:59;;;;;;;8.93;4.93;;;;;;;;;;4433924;32;20192;-76
2021/06/14 00:12:25;;;;;;;10.43;4.87;;;;;;;;;;4434458;32;20522;-77
2021/06/14 00:14:51;;;;;;;10.93;5.30;;;;;;;;;;4435110;32;20271;-76
2021/06/14 00:17:17;;;;;;;9.68;5.22;;;;;;;;;;4419304;32;20165;-77
2021/06/14 00:19:42;;;;;;;10.55;5.60;;;;;;;;;;4423729;32;20150;-76
2021/06/14 00:22:07;;;;;;;9.07;5.15;;;;;;;;;;4433596;32;20145;-76
2021/06/14 00:24:32;;;;;;;13.65;5.55;;;;;;;;;;4435728;32;20138;-76
2021/06/14 00:26:58;;;;;;;7.57;5.35;;;;;;;;;;4433843;32;20145;-76
2021/06/14 00:29:23;;;;;;;13.15;6.18;;;;;;;;;;4426871;32;20241;-76
2021/06/14 00:31:48;;;;;;;13.07;5.47;;;;;;;;;;4419489;32;20133;-76
2021/06/14 00:34:13;;;;;;;9.87;5.17;;;;;;;;;;4415571;32;20173;-77
2021/06/14 00:36:38;;;;;;;9.55;5.50;;;;;;;;;;4435463;32;20236;-76
2021/06/14 00:39:04;;;;;;;8.43;5.00;;;;;;;;;;4434117;32;20584;-76
2021/06/14 00:41:29;;;;;;;11.80;6.07;;;;;;;;;;4433508;32;20248;-76
2021/06/14 00:43:54;;;;;;;13.45;6.22;;;;;;;;;;4435403;32;20446;-75
2021/06/14 00:46:19;;;;;;;9.20;5.73;;;;;;;;;;4419683;32;20204;-76
2021/06/14 00:48:44;;;;;;;13.48;6.60;;;;;;;;;;4420099;32;20256;-76
2021/06/14 00:51:10;;;;;;;11.20;6.32;;;;;;;;;;4434994;32;20204;-76
2021/06/14 00:53:39;;;;;;;11.55;5.93;;;;;;;;;;4434870;32;20292;-76
2021/06/14 00:56:07;;;;;;;10.50;5.80;;;;;;;;;;4419923;32;20580;-77
2021/06/14 00:58:32;;;;;;;8.95;6.20;;;;;;;;;;4419207;32;20174;-76
2021/06/14 01:00:58;;;;;;;10.80;6.93;;;;;;;;;;4420079;32;20202;-76
2021/06/14 01:03:23;;;;;;;13.85;7.53;;;;;;;;;;4433380;32;20512;-76
2021/06/14 01:05:50;;;;;;;10.38;6.90;;;;;;;;;;4434927;32;20164;-77
2021/06/14 01:08:15;;;;;;;11.52;7.35;;;;;;;;;;4432721;32;20624;-77
2021/06/14 01:10:42;;;;;;;13.88;8.07;;;;;;;;;;4434728;32;20141;-77
2021/06/14 01:13:14;;;;;;;14.32;8.68;;;;;;;;;;4434817;32;20208;-76
2021/06/14 01:15:58;;;;;;;13.43;8.82;;;;;;;;;;4434063;32;20619;-76
2021/06/14 01:18:29;;;;;;;12.55;8.60;;;;;;;;;;4432725;32;20245;-76
2021/06/14 01:20:59;;;;;;;12.65;9.40;;;;;;;;;;4434063;32;20593;-76
2021/06/14 01:23:43;;;;;;;12.05;9.02;;;;;;;;;;4433234;32;20180;-76
2021/06/14 01:26:12;;;;;;;14.05;9.95;;;;;;;;;;4432898;32;20145;-76
2021/06/14 01:28:38;;;;;;;16.65;9.98;;;;;;;;;;4434549;32;20217;-76
2021/06/14 01:31:03;;;;;;;13.75;9.38;;;;;;;;;;4419400;32;20164;-76
2021/06/14 01:33:29;;;;;;;15.80;10.02;;;;;;;;;;4433487;32;20244;-76
2021/06/14 01:35:58;;;;;;;17.35;9.73;;;;;;;;;;4433946;32;20728;-76
2021/06/14 01:38:25;;;;;;;18.67;10.60;;;;;;;;;;4434982;32;20578;-76
2021/06/14 01:40:53;;;;;;;16.33;11.18;;;;;;;;;;4421460;32;20285;-76
2021/06/14 01:43:21;;;;;;;14.90;10.75;;;;;;;;;;4433945;32;20142;-76
2021/06/14 01:45:48;;;;;;;18.55;11.55;;;;;;;;;;4432687;32;20154;-75
2021/06/14 01:48:14;;;;;;;13.30;10.70;;;;;;;;;;4432506;32;20187;-76
2021/06/14 01:50:39;;;;;;;14.23;10.77;;;;;;;;;;4418210;32;20181;-76
2021/06/14 01:53:05;;;;;;;20.50;12.93;;;;;;;;;;4419252;32;20192;-76
2021/06/14 01:55:32;;;;;;;19.27;12.02;;;;;;;;;;4418220;32;20284;-75
2021/06/14 01:57:57;;;;;;;15.18;10.80;;;;;;;;;;4431772;32;20204;-76
2021/06/14 02:00:23;;;;;;;17.90;11.40;;;;;;;;;;4418952;32;20605;-76
2021/06/14 02:02:49;;;;;;;15.93;10.82;;;;;;;;;;4433126;32;20610;-77
2021/06/14 02:05:14;;;;;;;17.67;12.37;;;;;;;;;;4434691;32;20207;-76
2021/06/14 02:07:40;;;;;;;20.92;12.02;;;;;;;;;;4433335;32;20146;-76
2021/06/14 02:10:05;;;;;;;15.75;11.40;;;;;;;;;;4431922;32;20231;-76
2021/06/14 02:12:31;;;;;;;16.48;11.07;;;;;;;;;;4419133;32;20177;-76
2021/06/14 02:14:56;;;;;;;17.02;12.00;;;;;;;;;;4432070;32;20146;-76
2021/06/14 02:17:24;;;;;;;18.35;10.77;;;;;;;;;;4432491;32;20175;-76
2021/06/14 02:19:49;;;;;;;18.45;11.02;;;;;;;;;;4419799;32;20212;-76
2021/06/14 02:22:15;;;;;;;19.95;11.35;;;;;;;;;;4418110;32;20646;-77
2021/06/14 02:24:40;;;;;;;19.02;11.85;;;;;;;;;;4419674;32;20205;-76
2021/06/14 02:27:06;;;;;;;19.83;11.63;;;;;;;;;;4418004;32;20185;-76
2021/06/14 02:29:31;;;;;;;19.60;11.45;;;;;;;;;;4417904;32;20541;-76
2021/06/14 02:31:57;;;;;;;19.92;12.18;;;;;;;;;;4433140;32;20130;-77
2021/06/14 02:34:22;;;;;;;21.20;13.00;;;;;;;;;;4431879;32;20150;-77
2021/06/14 02:36:47;;;;;;;18.62;12.37;;;;;;;;;;4419231;32;20261;-77
2021/06/14 02:39:14;;;;;;;18.48;12.20;;;;;;;;;;4431758;32;20511;-76
2021/06/14 02:41:40;;;;;;;17.58;12.27;;;;;;;;;;4432839;32;20149;-77
2021/06/14 02:44:06;;;;;;;19.25;12.23;;;;;;;;;;4434281;32;20133;-77
2021/06/14 02:46:35;;;;;;;18.45;12.80;;;;;;;;;;4433435;32;20168;-76
2021/06/14 02:49:00;;;;;;;18.30;12.77;;;;;;;;;;4417781;32;20195;-76
2021/06/14 02:51:26;;;;;;;20.33;12.60;;;;;;;;;;4432653;32;20157;-76
2021/06/14 02:54:03;;;;;;;21.52;13.38;;;;;;;;;;4432019;32;20526;-76
2021/06/14 02:56:29;;;;;;;16.80;11.73;;;;;;;;;;4432434;32;20610;-76
2021/06/14 02:58:54;;;;;;;18.62;12.88;;;;;;;;;;4423842;32;20150;-74
2021/06/14 03:01:19;;;;;;;19.80;13.00;;;;;;;;;;4422703;32;20189;-76
2021/06/14 03:03:45;;;;;;;22.62;13.57;;;;;;;;;;4432021;32;20141;-76
2021/06/14 03:06:15;;;;;;;20.02;12.55;;;;;;;;;;4410011;32;20201;-77
2021/06/14 03:08:40;;;;;;;21.25;13.70;;;;;;;;;;4427784;32;20149;-77
2021/06/14 03:11:06;;;;;;;21.75;14.07;;;;;;;;;;4433270;32;20169;-77
2021/06/14 03:13:31;;;;;;;21.23;14.50;;;;;;;;;;4433287;32;20223;-75
2021/06/14 03:15:57;;;;;;;23.17;13.70;;;;;;;;;;4431725;32;20169;-76
2021/06/14 03:18:23;;;;;;;20.02;13.50;;;;;;;;;;4417390;32;20200;-76
2021/06/14 03:20:50;;;;;;;21.58;13.82;;;;;;;;;;4417515;32;20687;-77
2021/06/14 03:23:15;;;;;;;18.10;13.45;;;;;;;;;;4419273;32;20196;-76
2021/06/14 03:25:40;;;;;;;20.37;12.93;;;;;;;;;;4420031;32;20205;-76
2021/06/14 03:28:06;;;;;;;23.30;14.13;;;;;;;;;;4434471;32;20197;-76
2021/06/14 03:30:32;;;;;;;20.70;13.88;;;;;;;;;;4436232;32;20158;-77
2021/06/14 03:32:57;;;;;;;17.52;12.37;;;;;;;;;;4434590;32;20210;-77
2021/06/14 03:35:23;;;;;;;24.77;14.95;;;;;;;;;;4420405;32;20162;-77
2021/06/14 03:37:49;;;;;;;22.55;14.85;;;;;;;;;;4436494;32;20677;-76
2021/06/14 03:40:15;;;;;;;22.08;14.25;;;;;;;;;;4421247;32;20162;-76
2021/06/14 03:42:40;;;;;;;19.92;13.93;;;;;;;;;;4434329;32;20203;-77
2021/06/14 03:45:07;;;;;;;25.20;14.48;;;;;;;;;;4434194;32;20552;-77
2021/06/14 03:47:32;;;;;;;22.23;15.02;;;;;;;;;;4421238;32;20238;-77
2021/06/14 03:49:57;;;;;;;21.27;14.07;;;;;;;;;;4435256;32;20516;-77
2021/06/14 03:52:22;;;;;;;23.73;14.77;;;;;;;;;;4434178;32;20232;-77
2021/06/14 03:54:47;;;;;;;23.17;13.50;;;;;;;;;;4435806;32;20557;-77
2021/06/14 03:57:12;;;;;;;18.65;12.75;;;;;;;;;;4419781;32;20662;-76
2021/06/14 03:59:37;;;;;;;22.00;15.02;;;;;;;;;;4434712;32;20229;-76
2021/06/14 04:02:03;;;;;;;24.77;14.45;;;;;;;;;;4435163;32;20245;-76
2021/06/14 04:04:43;;;;;;;24.92;16.33;;;;;;;;;;4433826;32;20229;-76
2021/06/14 04:07:09;;;;;;;21.02;12.77;;;;;;;;;;4435368;32;20185;-76
2021/06/14 04:09:34;;;;;;;21.60;12.37;;;;;;;;;;4436125;32;20613;-78
2021/06/14 04:12:01;;;;;;;21.67;12.80;;;;;;;;;;4435999;32;20166;-76
2021/06/14 04:14:26;;;;;;;21.73;13.40;;;;;;;;;;4434078;32;20157;-78
2021/06/14 04:16:51;;;;;;;19.73;12.32;;;;;;;;;;4435465;32;20657;-77
2021/06/14 04:19:16;;;;;;;19.90;11.38;;;;;;;;;;4435430;32;20150;-75
2021/06/14 04:21:42;;;;;;;23.60;14.15;;;;;;;;;;4433288;32;20184;-76
2021/06/14 04:24:07;;;;;;;21.80;12.37;;;;;;;;;;4419196;32;20260;-76
2021/06/14 04:26:32;;;;;;;22.62;12.73;;;;;;;;;;4419963;32;20264;-76
2021/06/14 04:28:58;;;;;;;21.07;12.47;;;;;;;;;;4433752;32;20149;-76
2021/06/14 04:31:23;;;;;;;22.40;13.57;;;;;;;;;;4436144;32;20267;-76
2021/06/14 04:33:48;;;;;;;23.42;13.95;;;;;;;;;;4434313;32;20141;-76
2021/06/14 04:36:13;;;;;;;22.70;12.20;;;;;;;;;;4432786;32;20157;-77
2021/06/14 04:38:39;;;;;;;24.00;12.60;;;;;;;;;;4433370;32;20198;-76
2021/06/14 04:41:04;;;;;;;17.58;11.98;;;;;;;;;;4419407;32;20170;-77
2021/06/14 04:43:29;;;;;;;19.80;11.70;;;;;;;;;;4421252;32;20169;-76
2021/06/14 04:45:54;;;;;;;20.95;11.20;;;;;;;;;;4435020;32;20141;-76
2021/06/14 04:48:20;;;;;;;28.27;14.87;;;;;;;;;;4419327;32;20470;-76
2021/06/14 04:50:45;;;;;;;20.17;11.63;;;;;;;;;;4432824;32;20236;-76
2021/06/14 04:53:10;;;;;;;19.55;12.15;;;;;;;;;;4433466;32;20174;-76
2021/06/14 04:55:35;;;;;;;22.80;11.65;;;;;;;;;;4433421;32;20137;-77
2021/06/14 04:58:01;;;;;;;18.83;10.95;;;;;;;;;;4434093;32;20241;-76
2021/06/14 05:00:27;;;;;;;17.10;11.27;;;;;;;;;;4435591;32;20146;-76
2021/06/14 05:02:52;;;;;;;19.83;11.70;;;;;;;;;;4427263;32;20306;-74
2021/06/14 05:05:18;;;;;;;16.67;11.43;;;;;;;;;;4420731;32;20148;-76
2021/06/14 05:07:43;;;;;;;47.53;12.73;;;;;;;;;;4426903;32;20362;-76
2021/06/14 05:10:08;;;;;;;26.30;11.95;;;;;;;;;;4434317;32;20229;-75
2021/06/14 05:12:33;;;;;;;20.50;11.12;;;;;;;;;;4435084;32;20657;-77
2021/06/14 05:14:59;;;;;;;20.88;11.80;;;;;;;;;;4434610;32;20145;-76
2021/06/14 05:17:24;;;;;;;23.67;12.47;;;;;;;;;;4433329;32;20180;-77
2021/06/14 05:19:49;;;;;;;20.62;12.45;;;;;;;;;;4418479;32;20277;-76
2021/06/14 05:22:14;;;;;;;20.17;13.30;;;;;;;;;;4434314;32;20613;-76
2021/06/14 05:24:40;;;;;;;21.48;11.18;;;;;;;;;;4432993;32;21107;-76
2021/06/14 05:27:05;;;;;;;19.40;11.43;;;;;;;;;;4419259;32;20169;-77
2021/06/14 05:29:31;;;;;;;19.30;11.27;;;;;;;;;;4416924;32;20217;-76
2021/06/14 05:31:57;;;;;;;21.50;12.50;;;;;;;;;;4429532;32;20613;-77
2021/06/14 05:34:22;;;;;;;18.83;10.48;;;;;;;;;;4432508;32;20153;-77
2021/06/14 05:36:47;;;;;;;18.80;9.68;;;;;;;;;;4433499;32;20172;-77
2021/06/14 05:39:13;;;;;;;14.80;9.10;;;;;;;;;;4434100;32;20523;-76
2021/06/14 05:41:38;;;;;;;21.45;10.85;;;;;;;;;;4434216;32;20228;-77
2021/06/14 05:44:03;;;;;;;22.07;10.20;;;;;;;;;;4418525;32;20276;-78
2021/06/14 05:46:28;;;;;;;17.37;10.88;;;;;;;;;;4431393;32;20328;-76
2021/06/14 05:48:54;;;;;;;18.00;9.27;;;;;;;;;;4432727;32;20417;-77
2021/06/14 05:51:19;;;;;;;24.87;10.77;;;;;;;;;;4431850;32;20220;-76
2021/06/14 05:53:48;;;;;;;19.48;9.75;;;;;;;;;;4430694;32;20852;-76
2021/06/14 05:56:13;;;;;;;17.27;9.27;;;;;;;;;;4417971;32;20287;-75
2021/06/14 05:58:38;;;;;;;16.00;9.38;;;;;;;;;;4419921;32;20153;-76
2021/06/14 06:01:03;;;;;;;19.42;10.15;;;;;;;;;;4418198;32;20257;-76
2021/06/14 06:03:28;;;;;;;17.73;10.00;;;;;;;;;;4425344;32;20508;-76
2021/06/14 06:05:53;;;;;;;17.70;10.13;;;;;;;;;;4432556;32;20305;-76
2021/06/14 06:08:18;;;;;;;18.45;10.02;;;;;;;;;;4433360;32;21005;-76
2021/06/14 06:10:44;;;;;;;15.30;9.13;;;;;;;;;;4417768;32;20287;-75
2021/06/14 06:13:09;;;;;;;21.67;9.93;;;;;;;;;;4419562;32;20273;-74
2021/06/14 06:15:35;;;;;;;21.00;9.63;;;;;;;;;;4426700;32;20149;-75
2021/06/14 06:18:00;;;;;;;20.12;9.23;;;;;;;;;;4431020;32;20234;-75
2021/06/14 06:20:25;;;;;;;21.37;9.80;;;;;;;;;;4420271;32;20621;-76
2021/06/14 06:22:52;;;;;;;26.37;9.40;;;;;;;;;;4434590;32;20291;-76
2021/06/14 06:25:18;;;;;;;16.65;8.68;;;;;;;;;;4421794;32;20162;-77
2021/06/14 06:27:44;;;;;;;17.45;9.32;;;;;;;;;;4435376;32;20165;-76
2021/06/14 06:30:10;;;;;;;25.90;9.05;;;;;;;;;;4421129;32;20162;-77
2021/06/14 06:32:35;;;;;;;18.08;8.10;;;;;;;;;;4417423;32;20215;-75
2021/06/14 06:35:00;;;;;;;19.77;8.93;;;;;;;;;;4396154;32;20161;-76
2021/06/14 06:37:25;;;;;;;18.48;8.60;;;;;;;;;;4426521;32;20263;-76
2021/06/14 06:39:50;;;;;;;20.80;8.10;;;;;;;;;;4407084;32;20704;-76
2021/06/14 06:42:16;;;;;;;24.52;8.30;;;;;;;;;;4419838;32;20126;-76
2021/06/14 06:44:41;;;;;;;16.67;8.10;;;;;;;;;;4419748;32;20499;-77
2021/06/14 06:47:06;;;;;;;15.93;8.07;;;;;;;;;;4419924;32;20126;-78
2021/06/14 06:49:32;;;;;;;14.82;7.60;;;;;;;;;;4419742;32;20141;-75
2021/06/14 06:51:57;;;;;;;17.80;7.40;;;;;;;;;;4427354;32;20153;-77
2021/06/14 06:54:23;;;;;;;15.70;8.15;;;;;;;;;;4434650;32;20547;-77
2021/06/14 06:56:50;;;;;;;13.70;7.62;;;;;;;;;;4434803;32;20138;-77
2021/06/14 06:59:15;;;;;;;13.98;6.68;;;;;;;;;;4438122;32;20149;-76
2021/06/14 07:01:40;;;;;;;19.60;8.07;;;;;;;;;;4423805;32;20261;-75
2021/06/14 07:04:06;;;;;;;15.82;6.90;;;;;;;;;;4409924;32;20233;-75
2021/06/14 07:06:32;;;;;;;12.63;7.70;;;;;;;;;;4437149;32;20232;-76
2021/06/14 07:08:58;;;;;;;16.52;7.18;;;;;;;;;;4438385;32;20780;-76
2021/06/14 07:11:27;;;;;;;15.80;6.85;;;;;;;;;;4436574;32;20134;-76
2021/06/14 07:13:53;;;;;;;21.00;6.82;;;;;;;;;;4422617;32;20584;-75
2021/06/14 07:16:18;;;;;;;11.20;6.12;;;;;;;;;;4438739;32;20130;-75
2021/06/14 07:18:43;;;;;;;13.15;6.25;;;;;;;;;;4437303;32;20522;-75
2021/06/14 07:21:08;;;;;;;15.38;6.90;;;;;;;;;;4437805;32;20314;-75
2021/06/14 07:23:34;;;;;;;17.00;6.65;;;;;;;;;;4438305;32;20198;-77
2021/06/14 07:25:59;;;;;;;12.00;6.22;;;;;;;;;;4437651;32;20137;-77
2021/06/14 07:28:24;;;;;;;17.17;7.17;;;;;;;;;;4438927;32;20152;-75
2021/06/14 07:30:49;;;;;;;22.67;7.00;;;;;;;;;;4438309;32;20252;-77
2021/06/14 07:33:14;;;;;;;15.05;6.32;;;;;;;;;;4437962;32;20229;-76
2021/06/14 07:35:40;;;;;;;14.00;6.20;;;;;;;;;;4438514;32;20141;-76
2021/06/14 07:38:06;;;;;;;25.73;7.05;;;;;;;;;;4438109;32;20190;-76
2021/06/14 07:40:31;;;;;;;15.25;6.45;;;;;;;;;;4436913;32;20173;-77
2021/06/14 07:42:56;;;;;;;13.83;6.10;;;;;;;;;;4409671;32;20242;-76
2021/06/14 07:45:24;;;;;;;13.18;6.25;;;;;;;;;;4420652;32;20622;-76
2021/06/14 07:47:50;;;;;;;19.48;7.05;;;;;;;;;;4422032;32;20240;-76
2021/06/14 07:50:15;;;;;;;14.00;6.72;;;;;;;;;;4420873;32;20138;-75
2021/06/14 07:52:40;;;;;;;12.85;6.43;;;;;;;;;;4425286;32;20544;-76
2021/06/14 07:55:05;;;;;;;14.53;6.00;;;;;;;;;;4436772;32;20472;-75
2021/06/14 07:57:31;;;;;;;14.80;6.57;;;;;;;;;;4436099;32;20291;-75
2021/06/14 07:59:56;;;;;;;16.70;5.93;;;;;;;;;;4438365;32;20161;-77
2021/06/14 08:02:21;;;;;;;17.08;6.28;;;;;;;;;;4422651;32;20303;-77
2021/06/14 08:04:46;;;;;;;10.20;5.47;;;;;;;;;;4436815;32;20141;-75
2021/06/14 08:07:11;;;;;;;15.10;6.17;;;;;;;;;;4436707;32;20154;-77
2021/06/14 08:09:37;;;;;;;12.10;5.97;;;;;;;;;;4437125;32;20260;-77
2021/06/14 08:12:03;;;;;;;12.25;5.65;;;;;;;;;;4438499;32;20286;-77
2021/06/14 08:14:28;;;;;;;11.70;5.78;;;;;;;;;;4436810;32;20570;-77
2021/06/14 08:16:53;;;;;;;13.73;6.80;;;;;;;;;;4437783;32;20160;-80
2021/06/14 08:22:13;;;;;;;15.13;6.05;;;;;;;;;;4438432;32;20272;-79
2021/06/14 08:27:15;;;;;;;12.88;6.15;;;;;;;;;;4437015;32;20243;-76
2021/06/14 08:29:41;;;;;;;11.73;6.37;;;;;;;;;;4438539;32;20515;-76
2021/06/14 08:32:07;;;;;;;15.52;6.47;;;;;;;;;;4424224;32;20252;-77
2021/06/14 08:34:32;;;;;;;17.87;6.10;;;;;;;;;;4436890;32;20309;-77
2021/06/14 08:36:57;;;;;;;16.43;6.23;;;;;;;;;;4437855;32;20586;-78
2021/06/14 08:39:22;;;;;;;10.60;5.57;;;;;;;;;;4438769;32;20319;-78
2021/06/14 08:41:47;;;;;;;11.13;5.10;;;;;;;;;;4438055;32;20284;-76
2021/06/14 08:44:13;;;;;;;11.82;5.30;;;;;;;;;;4436432;32;20264;-77
2021/06/14 08:46:38;;;;;;;12.02;4.50;;;;;;;;;;4437929;32;20133;-76
2021/06/14 08:49:05;;;;;;;15.43;5.80;;;;;;;;;;4438005;32;20138;-74
2021/06/14 08:51:30;;;;;;;11.43;4.93;;;;;;;;;;4436971;32;20184;-77
2021/06/14 08:53:56;;;;;;;9.60;4.53;;;;;;;;;;4421459;32;20165;-77
2021/06/14 08:56:22;;;;;;;13.25;6.12;;;;;;;;;;4436073;32;20236;-78
2021/06/14 08:58:48;;;;;;;12.27;4.60;;;;;;;;;;4421785;32;20630;-78
2021/06/14 09:01:13;;;;;;;13.40;4.72;;;;;;;;;;4436000;32;20138;-77
2021/06/14 09:03:39;;;;;;;9.68;4.18;;;;;;;;;;4435592;32;20145;-75
2021/06/14 09:06:04;;;;;;;11.20;4.78;;;;;;;;;;4434477;32;20626;-75
2021/06/14 09:08:29;;;;;;;8.32;4.50;;;;;;;;;;4434717;32;20153;-74
2021/06/14 09:10:54;;;;;;;11.30;4.73;;;;;;;;;;4436457;32;20141;-76
2021/06/14 09:13:21;;;;;;;10.57;4.07;;;;;;;;;;4436565;32;20256;-76
2021/06/14 09:15:48;;;;;;;11.35;4.15;;;;;;;;;;4422959;32;20539;-76
2021/06/14 09:18:33;;;;;;;9.52;3.83;;;;;;;;;;4434184;32;20180;-75
2021/06/14 09:21:00;;;;;;;9.38;4.32;;;;;;;;;;4413365;32;20204;-77
2021/06/14 09:23:37;;;;;;;12.43;4.72;;;;;;;;;;4406155;32;20219;-77
2021/06/14 09:26:02;;;;;;;9.23;4.10;;;;;;;;;;4430747;32;20168;-77
2021/06/14 09:28:27;;;;;;;9.27;4.07;;;;;;;;;;4420680;32;20157;-78
2021/06/14 09:30:52;;;;;;;10.32;4.35;;;;;;;;;;4435157;32;20164;-77
2021/06/14 09:33:22;;;;;;;10.32;4.28;;;;;;;;;;4435837;32;20130;-76
2021/06/14 09:35:47;;;;;;;11.90;4.20;;;;;;;;;;4434576;32;20212;-76
2021/06/14 09:38:14;;;;;;;11.98;4.50;;;;;;;;;;4435811;32;20621;-75
2021/06/14 09:40:50;;;;;;;10.00;4.70;;;;;;;;;;4420217;32;20162;-75
2021/06/14 09:43:21;;;;;;;12.77;4.35;;;;;;;;;;4435373;32;20153;-76
2021/06/14 09:45:46;;;;;;;11.52;4.32;;;;;;;;;;4421828;32;20187;-76
2021/06/14 09:48:18;;;;;;;17.15;4.95;;;;;;;;;;4422385;32;20236;-76
2021/06/14 09:50:45;;;;;;;6.45;4.20;;;;;;;;;;4435138;32;20188;-76
2021/06/14 09:53:11;;;;;;;23.15;4.82;;;;;;;;;;4435642;32;20160;-76
2021/06/14 09:55:37;;;;;;;15.27;4.65;;;;;;;;;;4422053;32;20160;-75
2021/06/14 09:58:09;;;;;;;9.32;4.28;;;;;;;;;;4420913;32;20232;-76
2021/06/14 10:00:34;;;;;;;11.02;4.12;;;;;;;;;;4434646;32;20137;-76
2021/06/14 10:03:00;;;;;;;7.22;3.95;;;;;;;;;;4436355;32;20137;-75
2021/06/14 10:05:25;;;;;;;9.27;4.37;;;;;;;;;;4420917;32;20221;-75
2021/06/14 10:07:51;;;;;;;8.70;3.80;;;;;;;;;;4434417;32;20181;-76
2021/06/14 10:10:27;;;;;;;7.50;3.95;;;;;;;;;;4436291;32;20168;-76
2021/06/14 10:12:53;;;;;;;7.68;3.58;;;;;;;;;;4436753;32;20136;-75
2021/06/14 10:15:27;;;;;;;9.38;3.53;;;;;;;;;;4434746;32;20186;-75
2021/06/14 10:17:52;;;;;;;8.52;4.03;;;;;;;;;;4435249;32;20455;-75
2021/06/14 10:20:19;;;;;;;8.68;4.00;;;;;;;;;;4434705;32;20209;-76
2021/06/14 10:22:46;;;;;;;9.65;3.78;;;;;;;;;;4435216;32;20245;-76
2021/06/14 10:25:12;;;;;;;8.93;3.50;;;;;;;;;;4435468;32;20239;-75
2021/06/14 10:27:37;;;;;;;12.52;3.90;;;;;;;;;;4436040;32;20142;-75
2021/06/14 10:30:04;;;;;;;8.80;4.18;;;;;;;;;;4436337;32;20160;-75
2021/06/14 10:32:30;;;;;;;8.35;4.18;;;;;;;;;;4434609;32;20635;-75
2021/06/14 10:34:56;;;;;;;7.95;3.72;;;;;;;;;;4425191;32;20173;-75
2021/06/14 10:37:21;;;;;;;9.98;3.95;;;;;;;;;;4439125;32;20578;-76
2021/06/14 10:39:48;;;;;;;8.98;3.80;;;;;;;;;;4438783;32;20129;-77
2021/06/14 10:42:13;;;;;;;10.82;4.35;;;;;;;;;;4437733;32;20484;-76
2021/06/14 10:44:38;;;;;;;7.47;3.65;;;;;;;;;;4438117;32;20182;-77
2021/06/14 10:47:06;;;;;;;10.07;4.57;;;;;;;;;;4424941;32;20162;-77
2021/06/14 10:49:32;;;;;;;8.77;3.75;;;;;;;;;;4438838;32;20165;-76
2021/06/14 10:51:58;;;;;;;10.43;4.70;;;;;;;;;;4437551;32;20224;-76
2021/06/14 10:54:23;;;;;;;11.77;4.60;;;;;;;;;;4437959;32;20225;-75
2021/06/14 10:56:48;;;;;;;8.55;4.40;;;;;;;;;;4437616;32;20149;-76
2021/06/14 10:59:14;;;;;;;11.45;4.32;;;;;;;;;;4423663;32;20252;-76
2021/06/14 11:01:41;;;;;;;12.82;4.20;;;;;;;;;;4423578;32;20559;-76
2021/06/14 11:04:07;;;;;;;9.60;4.37;;;;;;;;;;4423392;32;20161;-77
2021/06/14 11:06:37;;;;;;;12.75;4.87;;;;;;;;;;4438978;32;20161;-77
2021/06/14 11:09:09;;;;;;;11.32;4.53;;;;;;;;;;4437985;32;20154;-78
2021/06/14 11:11:48;;;;;;;13.52;4.80;;;;;;;;;;4424672;32;20165;-77
2021/06/14 11:14:34;;;;;;;8.90;4.03;;;;;;;;;;4430663;32;20156;-77
2021/06/14 11:17:19;;;;;;;13.88;4.40;;;;;;;;;;4422972;32;20169;-78
2021/06/14 11:19:45;;;;;;;10.60;4.30;;;;;;;;;;4437199;32;20138;-76
2021/06/14 11:22:11;;;;;;;9.05;4.43;;;;;;;;;;4439012;32;20441;-76
2021/06/14 11:24:37;;;;;;;8.93;4.37;;;;;;;;;;4437508;32;20129;-77
2021/06/14 11:27:04;;;;;;;13.95;4.60;;;;;;;;;;4437461;32;20164;-76
2021/06/14 11:29:39;;;;;;;11.52;4.37;;;;;;;;;;4424185;32;20150;-76
2021/06/14 11:32:04;;;;;;;9.65;4.50;;;;;;;;;;4423727;32;20169;-77
2021/06/14 11:34:40;;;;;;;8.95;4.50;;;;;;;;;;4437329;32;20176;-77
2021/06/14 11:37:05;;;;;;;8.07;4.53;;;;;;;;;;4436825;32;20471;-77
2021/06/14 11:39:32;;;;;;;9.88;3.87;;;;;;;;;;4436701;32;20334;-77
2021/06/14 11:42:06;;;;;;;11.68;4.10;;;;;;;;;;4423533;32;20229;-78
2021/06/14 11:44:32;;;;;;;8.48;4.03;;;;;;;;;;4436620;32;20837;-78
2021/06/14 11:47:00;;;;;;;14.27;4.70;;;;;;;;;;4436821;32;20134;-78
2021/06/14 11:49:33;;;;;;;11.65;4.25;;;;;;;;;;4437689;32;20142;-78
2021/06/14 11:51:59;;;;;;;12.65;4.35;;;;;;;;;;4421304;32;20203;-77
2021/06/14 11:54:24;;;;;;;10.15;4.32;;;;;;;;;;4422742;32;20134;-77
2021/06/14 11:56:59;;;;;;;11.73;4.32;;;;;;;;;;4420250;32;20162;-77
2021/06/14 11:59:31;;;;;;;7.55;4.15;;;;;;;;;;4420444;32;20157;-77
2021/06/14 12:01:56;;;;;;;9.88;3.97;;;;;;;;;;4422159;32;20244;-78
2021/06/14 12:04:22;;;;;;;9.68;3.83;;;;;;;;;;4421206;32;20522;-78
2021/06/14 12:06:47;;;;;;;6.50;3.40;;;;;;;;;;4421350;32;20566;-79
2021/06/14 12:09:14;;;;;;;6.85;3.30;;;;;;;;;;4404718;32;20219;-78
2021/06/14 12:11:40;;;;;;;5.82;2.90;;;;;;;;;;4419837;32;20197;-77
2021/06/14 12:14:09;;;;;;;7.43;2.65;;;;;;;;;;4422368;32;20141;-77
2021/06/14 12:16:34;;;;;;;4.93;2.45;;;;;;;;;;4420886;32;20208;-78
2021/06/14 12:19:00;;;;;;;4.93;2.70;;;;;;;;;;4421660;32;20166;-78
2021/06/14 12:21:25;;;;;;;8.70;2.97;;;;;;;;;;4420018;32;20265;-77
2021/06/14 12:23:50;;;;;;;6.05;3.83;;;;;;;;;;4421026;32;20241;-77
2021/06/14 12:26:16;;;;;;;5.80;3.10;;;;;;;;;;4419965;32;20134;-79
2021/06/14 12:28:41;;;;;;;4.32;2.83;;;;;;;;;;4418809;32;20208;-78
2021/06/14 12:31:08;;;;;;;6.05;3.10;;;;;;;;;;4422524;32;20158;-78
2021/06/14 12:33:35;;;;;;;8.57;3.00;;;;;;;;;;4412627;32;20189;-78
2021/06/14 12:36:00;;;;;;;9.68;3.50;;;;;;;;;;4390270;32;20694;-78
2021/06/14 12:38:28;;;;;;;7.10;3.60;;;;;;;;;;4389677;32;20151;-78
2021/06/14 12:40:54;;;;;;;6.32;2.90;;;;;;;;;;4390233;32;20463;-78
2021/06/14 12:43:19;;;;;;;7.78;2.80;;;;;;;;;;4389286;32;20143;-78
2021/06/14 12:45:45;;;;;;;7.37;3.10;;;;;;;;;;4387711;32;20201;-76
2021/06/14 12:48:12;;;;;;;6.10;2.85;;;;;;;;;;4388687;32;20134;-77
2021/06/14 12:50:43;;;;;;;5.68;3.15;;;;;;;;;;4391057;32;21190;-79
2021/06/14 12:53:08;;;;;;;8.52;3.40;;;;;;;;;;4404956;32;20215;-77
2021/06/14 12:55:37;;;;;;;8.95;2.85;;;;;;;;;;4419522;32;20130;-78
2021/06/14 12:58:11;;;;;;;6.32;3.55;;;;;;;;;;4420783;32;20558;-78
2021/06/14 13:00:39;;;;;;;6.12;3.15;;;;;;;;;;4435216;32;20176;-78
2021/06/14 13:03:05;;;;;;;6.40;3.30;;;;;;;;;;4434103;32;20141;-79
2021/06/14 13:05:31;;;;;;;10.02;3.20;;;;;;;;;;4435366;32;20225;-78
2021/06/14 13:08:05;;;;;;;7.55;3.35;;;;;;;;;;4418963;32;20220;-79
2021/06/14 13:10:33;;;;;;;10.38;3.50;;;;;;;;;;4420499;32;20149;-78
2021/06/14 13:12:58;;;;;;;6.57;3.28;;;;;;;;;;4419282;32;20540;-79
2021/06/14 13:15:28;;;;;;;6.50;3.05;;;;;;;;;;4435063;32;20281;-77
2021/06/14 13:17:54;;;;;;;6.62;2.95;;;;;;;;;;4431798;32;20188;-78
2021/06/14 13:20:20;;;;;;;7.05;2.97;;;;;;;;;;4433633;32;20134;-78
2021/06/14 13:22:46;;;;;;;5.68;2.97;;;;;;;;;;4434287;32;20142;-77
2021/06/14 13:25:11;;;;;;;6.07;3.30;;;;;;;;;;4434167;32;20173;-77
2021/06/14 13:27:46;;;;;;;7.97;3.00;;;;;;;;;;4419343;32;20231;-77
2021/06/14 13:30:12;;;;;;;4.25;3.10;;;;;;;;;;4417555;32;20222;-77
2021/06/14 13:32:46;;;;;;;6.28;3.03;;;;;;;;;;4431362;32;20485;-79
2021/06/14 13:35:12;;;;;;;7.50;2.97;;;;;;;;;;4416751;32;20278;-79
2021/06/14 13:37:38;;;;;;;5.80;2.62;;;;;;;;;;4431404;32;20578;-78
2021/06/14 13:40:12;;;;;;;11.73;3.47;;;;;;;;;;4419142;32;20188;-79
2021/06/14 13:42:44;;;;;;;6.78;2.87;;;;;;;;;;4420509;32;20162;-79
2021/06/14 13:45:09;;;;;;;9.73;2.80;;;;;;;;;;4432601;32;20180;-80
2021/06/14 13:47:35;;;;;;;6.03;2.33;;;;;;;;;;4432311;32;20153;-80
2021/06/14 13:50:04;;;;;;;4.57;2.62;;;;;;;;;;4420382;32;20161;-81
2021/06/14 13:52:30;;;;;;;6.22;2.75;;;;;;;;;;4432596;32;20264;-79
2021/06/14 13:54:57;;;;;;;4.17;2.30;;;;;;;;;;4432342;32;20130;-78
2021/06/14 13:57:22;;;;;;;6.40;2.78;;;;;;;;;;4417430;32;20284;-79
2021/06/14 13:59:47;;;;;;;6.30;2.75;;;;;;;;;;4419633;32;20157;-79
2021/06/14 14:02:22;;;;;;;6.35;2.90;;;;;;;;;;4432471;32;20149;-79
2021/06/14 14:04:48;;;;;;;8.13;3.62;;;;;;;;;;4422480;32;20191;-80
2021/06/14 14:07:13;;;;;;;6.72;2.58;;;;;;;;;;4419404;32;20157;-80
2021/06/14 14:09:39;;;;;;;4.95;2.25;;;;;;;;;;4419740;32;20170;-80
2021/06/14 14:12:04;;;;;;;7.45;2.90;;;;;;;;;;4419194;32;20586;-79
2021/06/14 14:14:30;;;;;;;6.07;2.70;;;;;;;;;;4434819;32;20164;-80
2021/06/14 14:16:55;;;;;;;6.50;2.20;;;;;;;;;;4441700;32;20149;-78
2021/06/14 14:19:21;;;;;;;5.07;2.58;;;;;;;;;;4430606;32;20548;-81
2021/06/14 14:21:48;;;;;;;4.97;2.50;;;;;;;;;;4436732;32;20172;-81
2021/06/14 14:24:13;;;;;;;7.05;2.40;;;;;;;;;;4442309;32;20582;-79
2021/06/14 14:26:43;;;;;;;5.90;2.70;;;;;;;;;;4443296;32;20156;-79
2021/06/14 14:29:13;;;;;;;6.55;2.40;;;;;;;;;;4435856;32;20271;-81
2021/06/14 14:31:39;;;;;;;8.05;2.85;;;;;;;;;;4438199;32;20161;-79